sensor_id;sensor_type;location;lat;lon;timestamp;temperature;humidity
3792;DHT22;1911;53.768;11.474;2024-01-10T00:01:19;-5.70;99.90
3792;DHT22;1911;53.768;11.474;2024-01-10T00:03:46;-5.80;99.90
3792;DHT22;1911;53.768;11.474;2024-01-10T00:06:12;-5.80;99.90
3792;DHT22;1911;53.768;11.474;2024-01-10T00:08:37;-5.80;99.90
3792;DHT22;1911;53.768;11.474;2024-01-10T00:11:03;-5.80;99.90
3792;DHT22;1911;53.768;11.474;2024-01-10T00:13:31;-5.80;99.90
3792;DHT22;1911;53.768;11.474;2024-01-10T00:15:57;-5.80;99.90
3792;DHT22;1911;53.768;11.474;2024-01-10T00:18:24;-5.80;99.90
3792;DHT22;1911;53.768;11.474;2024-01-10T00:20:51;-5.80;99.90
3792;DHT22;1911;53.768;11.474;2024-01-10T00:23:19;-5.80;99.90
3792;DHT22;1911;53.768;11.474;2024-01-10T00:25:45;-5.80;99.90
3792;DHT22;1911;53.768;11.474;2024-01-10T00:28:11;-5.80;99.90
3792;DHT22;1911;53.768;11.474;2024-01-10T00:30:37;-5.80;99.90
3792;DHT22;1911;53.768;11.474;2024-01-10T00:33:03;-5.80;99.90
3792;DHT22;1911;53.768;11.474;2024-01-10T00:35:29;-5.80;99.90
3792;DHT22;1911;53.768;11.474;2024-01-10T00:37:54;-5.80;99.90
3792;DHT22;1911;53.768;11.474;2024-01-10T00:40:20;-5.80;99.90
3792;DHT22;1911;53.768;11.474;2024-01-10T00:42:45;-5.80;99.90
3792;DHT22;1911;53.768;11.474;2024-01-10T00:45:11;-5.80;99.90
3792;DHT22;1911;53.768;11.474;2024-01-10T00:47:37;-5.80;99.90
3792;DHT22;1911;53.768;11.474;2024-01-10T00:50:02;-5.70;99.90
3792;DHT22;1911;53.768;11.474;2024-01-10T00:52:28;-5.70;99.90
3792;DHT22;1911;53.768;11.474;2024-01-10T00:54:53;-5.70;99.90
3792;DHT22;1911;53.768;11.474;2024-01-10T00:57:19;-5.70;99.90
3792;DHT22;1911;53.768;11.474;2024-01-10T00:59:45;-5.60;99.90
3792;DHT22;1911;53.768;11.474;2024-01-10T01:02:10;-5.50;99.90
3792;DHT22;1911;53.768;11.474;2024-01-10T01:04:36;-5.40;99.90
3792;DHT22;1911;53.768;11.474;2024-01-10T01:07:01;-5.40;99.90
3792;DHT22;1911;53.768;11.474;2024-01-10T01:09:27;-5.30;99.90
3792;DHT22;1911;53.768;11.474;2024-01-10T01:11:52;-5.20;99.90
3792;DHT22;1911;53.768;11.474;2024-01-10T01:14:18;-5.20;99.90
3792;DHT22;1911;53.768;11.474;2024-01-10T01:16:44;-5.10;99.90
3792;DHT22;1911;53.768;11.474;2024-01-10T01:19:09;-5.10;99.90
3792;DHT22;1911;53.768;11.474;2024-01-10T01:21:35;-5.00;99.90
3792;DHT22;1911;53.768;11.474;2024-01-10T01:24:00;-5.10;99.90
3792;DHT22;1911;53.768;11.474;2024-01-10T01:26:26;-5.10;99.90
3792;DHT22;1911;53.768;11.474;2024-01-10T01:28:51;-5.10;99.90
3792;DHT22;1911;53.768;11.474;2024-01-10T01:31:17;-5.10;99.90
3792;DHT22;1911;53.768;11.474;2024-01-10T01:33:43;-5.10;99.90
3792;DHT22;1911;53.768;11.474;2024-01-10T01:36:08;-5.00;99.90
3792;DHT22;1911;53.768;11.474;2024-01-10T01:38:35;-5.00;99.90
3792;DHT22;1911;53.768;11.474;2024-01-10T01:41:00;-5.00;99.90
3792;DHT22;1911;53.768;11.474;2024-01-10T01:43:26;-4.90;99.90
3792;DHT22;1911;53.768;11.474;2024-01-10T01:45:56;-4.90;99.90
3792;DHT22;1911;53.768;11.474;2024-01-10T01:48:23;-4.90;99.90
3792;DHT22;1911;53.768;11.474;2024-01-10T01:50:52;-4.90;99.90
3792;DHT22;1911;53.768;11.474;2024-01-10T01:53:18;-4.90;99.90
3792;DHT22;1911;53.768;11.474;2024-01-10T01:55:45;-5.00;99.90
3792;DHT22;1911;53.768;11.474;2024-01-10T01:58:11;-5.00;99.90
3792;DHT22;1911;53.768;11.474;2024-01-10T02:00:38;-5.00;99.90
3792;DHT22;1911;53.768;11.474;2024-01-10T02:03:09;-4.90;99.90
3792;DHT22;1911;53.768;11.474;2024-01-10T02:05:36;-5.00;99.90
3792;DHT22;1911;53.768;11.474;2024-01-10T02:08:02;-5.00;99.90
3792;DHT22;1911;53.768;11.474;2024-01-10T02:10:27;-5.00;99.90
3792;DHT22;1911;53.768;11.474;2024-01-10T02:12:53;-5.00;99.90
3792;DHT22;1911;53.768;11.474;2024-01-10T02:15:19;-5.10;99.90
3792;DHT22;1911;53.768;11.474;2024-01-10T02:17:45;-5.00;99.90
3792;DHT22;1911;53.768;11.474;2024-01-10T02:20:15;-5.00;99.90
3792;DHT22;1911;53.768;11.474;2024-01-10T02:22:43;-4.90;99.90
3792;DHT22;1911;53.768;11.474;2024-01-10T02:25:12;-4.80;99.90
3792;DHT22;1911;53.768;11.474;2024-01-10T02:27:39;-4.80;99.90
3792;DHT22;1911;53.768;11.474;2024-01-10T02:30:06;-4.70;99.90
3792;DHT22;1911;53.768;11.474;2024-01-10T02:32:32;-4.70;99.90
3792;DHT22;1911;53.768;11.474;2024-01-10T02:34:58;-4.60;99.90
3792;DHT22;1911;53.768;11.474;2024-01-10T02:37:24;-4.60;99.90
3792;DHT22;1911;53.768;11.474;2024-01-10T02:39:49;-4.60;99.90
3792;DHT22;1911;53.768;11.474;2024-01-10T02:42:15;-4.50;99.90
3792;DHT22;1911;53.768;11.474;2024-01-10T02:44:41;-4.50;99.90
3792;DHT22;1911;53.768;11.474;2024-01-10T02:47:07;-4.40;99.90
3792;DHT22;1911;53.768;11.474;2024-01-10T02:49:32;-4.40;99.90
3792;DHT22;1911;53.768;11.474;2024-01-10T02:51:58;-4.30;99.90
3792;DHT22;1911;53.768;11.474;2024-01-10T02:54:24;-4.20;99.90
3792;DHT22;1911;53.768;11.474;2024-01-10T02:56:50;-4.20;99.90
3792;DHT22;1911;53.768;11.474;2024-01-10T02:59:15;-4.20;99.90
3792;DHT22;1911;53.768;11.474;2024-01-10T03:01:41;-4.20;99.90
3792;DHT22;1911;53.768;11.474;2024-01-10T03:04:07;-4.30;99.90
3792;DHT22;1911;53.768;11.474;2024-01-10T03:06:32;-4.30;99.90
3792;DHT22;1911;53.768;11.474;2024-01-10T03:08:58;-4.30;99.90
3792;DHT22;1911;53.768;11.474;2024-01-10T03:11:23;-4.20;99.90
3792;DHT22;1911;53.768;11.474;2024-01-10T03:14:07;-4.30;99.90
3792;DHT22;1911;53.768;11.474;2024-01-10T03:16:33;-4.30;99.90
3792;DHT22;1911;53.768;11.474;2024-01-10T03:18:59;-4.40;99.90
3792;DHT22;1911;53.768;11.474;2024-01-10T03:21:25;-4.40;99.90
3792;DHT22;1911;53.768;11.474;2024-01-10T03:23:53;-4.40;99.90
3792;DHT22;1911;53.768;11.474;2024-01-10T03:26:19;-4.40;99.90
3792;DHT22;1911;53.768;11.474;2024-01-10T03:28:45;-4.30;99.90
3792;DHT22;1911;53.768;11.474;2024-01-10T03:31:11;-4.30;99.90
3792;DHT22;1911;53.768;11.474;2024-01-10T03:33:36;-4.30;99.90
3792;DHT22;1911;53.768;11.474;2024-01-10T03:36:02;-4.20;99.90
3792;DHT22;1911;53.768;11.474;2024-01-10T03:38:28;-4.30;99.90
3792;DHT22;1911;53.768;11.474;2024-01-10T03:40:54;-4.20;99.90
3792;DHT22;1911;53.768;11.474;2024-01-10T03:43:19;-4.20;99.90
3792;DHT22;1911;53.768;11.474;2024-01-10T03:45:45;-4.20;99.90
3792;DHT22;1911;53.768;11.474;2024-01-10T03:48:10;-4.20;99.90
3792;DHT22;1911;53.768;11.474;2024-01-10T03:50:36;-4.20;99.90
3792;DHT22;1911;53.768;11.474;2024-01-10T03:53:02;-4.20;99.90
3792;DHT22;1911;53.768;11.474;2024-01-10T03:55:27;-4.10;99.90
3792;DHT22;1911;53.768;11.474;2024-01-10T03:57:53;-4.10;99.90
3792;DHT22;1911;53.768;11.474;2024-01-10T04:00:19;-4.20;99.90
3792;DHT22;1911;53.768;11.474;2024-01-10T04:02:44;-4.20;99.90
3792;DHT22;1911;53.768;11.474;2024-01-10T04:05:10;-4.20;99.90
3792;DHT22;1911;53.768;11.474;2024-01-10T04:07:39;-4.20;99.90
3792;DHT22;1911;53.768;11.474;2024-01-10T04:10:05;-4.00;99.90
3792;DHT22;1911;53.768;11.474;2024-01-10T04:12:33;-4.10;99.90
3792;DHT22;1911;53.768;11.474;2024-01-10T04:14:58;-4.10;99.90
3792;DHT22;1911;53.768;11.474;2024-01-10T04:17:24;-4.00;99.90
3792;DHT22;1911;53.768;11.474;2024-01-10T04:19:50;-4.00;99.90
3792;DHT22;1911;53.768;11.474;2024-01-10T04:22:15;-4.00;99.90
3792;DHT22;1911;53.768;11.474;2024-01-10T04:24:41;-4.00;99.90
3792;DHT22;1911;53.768;11.474;2024-01-10T04:27:07;-3.90;99.90
3792;DHT22;1911;53.768;11.474;2024-01-10T04:29:32;-3.90;99.90
3792;DHT22;1911;53.768;11.474;2024-01-10T04:31:58;-3.90;99.90
3792;DHT22;1911;53.768;11.474;2024-01-10T04:34:24;-3.90;99.90
3792;DHT22;1911;53.768;11.474;2024-01-10T04:36:50;-3.80;99.90
3792;DHT22;1911;53.768;11.474;2024-01-10T04:39:15;-3.80;99.90
3792;DHT22;1911;53.768;11.474;2024-01-10T04:41:41;-3.80;99.90
3792;DHT22;1911;53.768;11.474;2024-01-10T04:44:07;-3.80;99.90
3792;DHT22;1911;53.768;11.474;2024-01-10T04:46:32;-3.90;99.90
3792;DHT22;1911;53.768;11.474;2024-01-10T04:48:59;-3.90;99.90
3792;DHT22;1911;53.768;11.474;2024-01-10T04:51:24;-3.90;99.90
3792;DHT22;1911;53.768;11.474;2024-01-10T04:53:50;-3.90;99.90
3792;DHT22;1911;53.768;11.474;2024-01-10T04:56:17;-3.90;99.90
3792;DHT22;1911;53.768;11.474;2024-01-10T04:58:43;-3.90;99.90
3792;DHT22;1911;53.768;11.474;2024-01-10T05:01:09;-3.90;99.90
3792;DHT22;1911;53.768;11.474;2024-01-10T05:03:34;-3.90;99.90
3792;DHT22;1911;53.768;11.474;2024-01-10T05:06:00;-3.80;99.90
3792;DHT22;1911;53.768;11.474;2024-01-10T05:08:26;-3.80;99.90
3792;DHT22;1911;53.768;11.474;2024-01-10T05:10:51;-3.80;99.90
3792;DHT22;1911;53.768;11.474;2024-01-10T05:13:17;-3.70;99.90
3792;DHT22;1911;53.768;11.474;2024-01-10T05:15:43;-3.70;99.90
3792;DHT22;1911;53.768;11.474;2024-01-10T05:18:08;-3.80;99.90
3792;DHT22;1911;53.768;11.474;2024-01-10T05:20:35;-3.70;99.90
3792;DHT22;1911;53.768;11.474;2024-01-10T05:23:01;-3.70;99.90
3792;DHT22;1911;53.768;11.474;2024-01-10T05:25:27;-3.70;99.90
3792;DHT22;1911;53.768;11.474;2024-01-10T05:27:52;-3.70;99.90
3792;DHT22;1911;53.768;11.474;2024-01-10T05:30:18;-3.60;99.90
3792;DHT22;1911;53.768;11.474;2024-01-10T05:32:44;-3.60;99.90
3792;DHT22;1911;53.768;11.474;2024-01-10T05:35:10;-3.60;99.90
3792;DHT22;1911;53.768;11.474;2024-01-10T05:37:36;-3.60;99.90
3792;DHT22;1911;53.768;11.474;2024-01-10T05:40:02;-3.60;99.90
3792;DHT22;1911;53.768;11.474;2024-01-10T05:42:29;-3.60;99.90
3792;DHT22;1911;53.768;11.474;2024-01-10T05:44:55;-3.60;99.90
3792;DHT22;1911;53.768;11.474;2024-01-10T05:47:21;-3.50;99.90
3792;DHT22;1911;53.768;11.474;2024-01-10T05:49:46;-3.60;99.90
3792;DHT22;1911;53.768;11.474;2024-01-10T05:52:12;-3.60;99.90
3792;DHT22;1911;53.768;11.474;2024-01-10T05:54:38;-3.50;99.90
3792;DHT22;1911;53.768;11.474;2024-01-10T05:57:04;-3.50;99.90
3792;DHT22;1911;53.768;11.474;2024-01-10T05:59:30;-3.50;99.90
3792;DHT22;1911;53.768;11.474;2024-01-10T06:01:56;-3.50;99.90
3792;DHT22;1911;53.768;11.474;2024-01-10T06:04:24;-3.50;99.90
3792;DHT22;1911;53.768;11.474;2024-01-10T06:06:49;-3.50;99.90
3792;DHT22;1911;53.768;11.474;2024-01-10T06:09:15;-3.50;99.90
3792;DHT22;1911;53.768;11.474;2024-01-10T06:11:47;-3.50;99.90
3792;DHT22;1911;53.768;11.474;2024-01-10T06:14:12;-3.50;99.90
3792;DHT22;1911;53.768;11.474;2024-01-10T06:16:38;-3.60;99.90
3792;DHT22;1911;53.768;11.474;2024-01-10T06:19:04;-3.60;99.90
3792;DHT22;1911;53.768;11.474;2024-01-10T06:21:29;-3.60;99.90
3792;DHT22;1911;53.768;11.474;2024-01-10T06:23:55;-3.60;99.90
3792;DHT22;1911;53.768;11.474;2024-01-10T06:26:20;-3.60;99.90
3792;DHT22;1911;53.768;11.474;2024-01-10T06:28:47;-3.60;99.90
3792;DHT22;1911;53.768;11.474;2024-01-10T06:31:13;-3.60;99.90
3792;DHT22;1911;53.768;11.474;2024-01-10T06:33:39;-3.60;99.90
3792;DHT22;1911;53.768;11.474;2024-01-10T06:36:05;-3.60;99.90
3792;DHT22;1911;53.768;11.474;2024-01-10T06:38:30;-3.60;99.90
3792;DHT22;1911;53.768;11.474;2024-01-10T06:40:56;-3.60;99.90
3792;DHT22;1911;53.768;11.474;2024-01-10T06:43:22;-3.60;99.90
3792;DHT22;1911;53.768;11.474;2024-01-10T06:45:47;-3.60;99.90
3792;DHT22;1911;53.768;11.474;2024-01-10T06:48:13;-3.60;99.90
3792;DHT22;1911;53.768;11.474;2024-01-10T06:50:40;-3.50;99.90
3792;DHT22;1911;53.768;11.474;2024-01-10T06:53:05;-3.60;99.90
3792;DHT22;1911;53.768;11.474;2024-01-10T06:55:31;-3.50;99.90
3792;DHT22;1911;53.768;11.474;2024-01-10T06:57:57;-3.40;99.90
3792;DHT22;1911;53.768;11.474;2024-01-10T07:00:23;-3.50;99.90
3792;DHT22;1911;53.768;11.474;2024-01-10T07:02:49;-3.50;99.90
3792;DHT22;1911;53.768;11.474;2024-01-10T07:05:15;-3.40;99.90
3792;DHT22;1911;53.768;11.474;2024-01-10T07:07:41;-3.40;99.90
3792;DHT22;1911;53.768;11.474;2024-01-10T07:10:07;-3.40;99.90
3792;DHT22;1911;53.768;11.474;2024-01-10T07:12:33;-3.40;99.90
3792;DHT22;1911;53.768;11.474;2024-01-10T07:14:59;-3.40;99.90
3792;DHT22;1911;53.768;11.474;2024-01-10T07:17:25;-3.40;99.90
3792;DHT22;1911;53.768;11.474;2024-01-10T07:19:51;-3.40;99.90
3792;DHT22;1911;53.768;11.474;2024-01-10T07:22:17;-3.40;99.90
3792;DHT22;1911;53.768;11.474;2024-01-10T07:24:45;-3.40;99.90
3792;DHT22;1911;53.768;11.474;2024-01-10T07:27:12;-3.30;99.90
3792;DHT22;1911;53.768;11.474;2024-01-10T07:29:40;-3.30;99.90
3792;DHT22;1911;53.768;11.474;2024-01-10T07:32:06;-3.30;99.90
3792;DHT22;1911;53.768;11.474;2024-01-10T07:34:37;-3.20;99.90
3792;DHT22;1911;53.768;11.474;2024-01-10T07:37:02;-3.20;99.90
3792;DHT22;1911;53.768;11.474;2024-01-10T07:39:29;-3.20;99.90
3792;DHT22;1911;53.768;11.474;2024-01-10T07:41:55;-3.30;99.90
3792;DHT22;1911;53.768;11.474;2024-01-10T07:44:21;-3.30;99.90
3792;DHT22;1911;53.768;11.474;2024-01-10T07:46:47;-3.40;99.90
3792;DHT22;1911;53.768;11.474;2024-01-10T07:49:12;-3.40;99.90
3792;DHT22;1911;53.768;11.474;2024-01-10T07:51:38;-3.40;99.90
3792;DHT22;1911;53.768;11.474;2024-01-10T07:54:03;-3.30;99.90
3792;DHT22;1911;53.768;11.474;2024-01-10T07:56:30;-3.40;99.90
3792;DHT22;1911;53.768;11.474;2024-01-10T07:58:55;-3.50;99.90
3792;DHT22;1911;53.768;11.474;2024-01-10T08:01:21;-3.40;99.90
3792;DHT22;1911;53.768;11.474;2024-01-10T08:03:47;-3.40;99.90
3792;DHT22;1911;53.768;11.474;2024-01-10T08:06:12;-3.40;99.90
3792;DHT22;1911;53.768;11.474;2024-01-10T08:08:39;-3.30;99.90
3792;DHT22;1911;53.768;11.474;2024-01-10T08:11:05;-3.30;99.90
3792;DHT22;1911;53.768;11.474;2024-01-10T08:13:31;-3.30;99.90
3792;DHT22;1911;53.768;11.474;2024-01-10T08:15:56;-3.30;99.90
3792;DHT22;1911;53.768;11.474;2024-01-10T08:18:23;-3.40;99.90
3792;DHT22;1911;53.768;11.474;2024-01-10T08:20:48;-3.40;99.90
3792;DHT22;1911;53.768;11.474;2024-01-10T08:23:14;-3.30;99.90
3792;DHT22;1911;53.768;11.474;2024-01-10T08:25:40;-3.30;99.90
3792;DHT22;1911;53.768;11.474;2024-01-10T08:28:06;-3.20;99.90
3792;DHT22;1911;53.768;11.474;2024-01-10T08:30:32;-3.20;99.90
3792;DHT22;1911;53.768;11.474;2024-01-10T08:32:58;-3.20;99.90
3792;DHT22;1911;53.768;11.474;2024-01-10T08:35:24;-3.10;99.90
3792;DHT22;1911;53.768;11.474;2024-01-10T08:37:50;-3.10;99.90
3792;DHT22;1911;53.768;11.474;2024-01-10T08:40:16;-3.10;99.90
3792;DHT22;1911;53.768;11.474;2024-01-10T08:42:42;-3.10;99.90
3792;DHT22;1911;53.768;11.474;2024-01-10T08:45:08;-3.00;99.90
3792;DHT22;1911;53.768;11.474;2024-01-10T08:47:37;-3.00;99.90
3792;DHT22;1911;53.768;11.474;2024-01-10T08:50:04;-2.90;99.90
3792;DHT22;1911;53.768;11.474;2024-01-10T08:52:35;-2.90;99.90
3792;DHT22;1911;53.768;11.474;2024-01-10T08:55:04;-2.80;99.90
3792;DHT22;1911;53.768;11.474;2024-01-10T08:57:30;-2.70;99.90
3792;DHT22;1911;53.768;11.474;2024-01-10T08:59:55;-2.70;99.90
3792;DHT22;1911;53.768;11.474;2024-01-10T09:02:21;-2.70;99.90
3792;DHT22;1911;53.768;11.474;2024-01-10T09:04:49;-2.70;99.90
3792;DHT22;1911;53.768;11.474;2024-01-10T09:07:14;-2.60;99.90
3792;DHT22;1911;53.768;11.474;2024-01-10T09:09:40;-2.70;99.90
3792;DHT22;1911;53.768;11.474;2024-01-10T09:12:06;-2.60;99.90
3792;DHT22;1911;53.768;11.474;2024-01-10T09:14:31;-2.70;99.90
3792;DHT22;1911;53.768;11.474;2024-01-10T09:16:57;-2.60;99.90
3792;DHT22;1911;53.768;11.474;2024-01-10T09:19:28;-2.50;99.90
3792;DHT22;1911;53.768;11.474;2024-01-10T09:21:53;-2.50;99.90
3792;DHT22;1911;53.768;11.474;2024-01-10T09:24:19;-2.60;99.90
3792;DHT22;1911;53.768;11.474;2024-01-10T09:26:45;-2.50;99.90
3792;DHT22;1911;53.768;11.474;2024-01-10T09:29:10;-2.40;99.90
3792;DHT22;1911;53.768;11.474;2024-01-10T09:31:36;-2.30;99.90
3792;DHT22;1911;53.768;11.474;2024-01-10T09:34:01;-2.40;99.90
3792;DHT22;1911;53.768;11.474;2024-01-10T09:36:27;-2.40;99.90
3792;DHT22;1911;53.768;11.474;2024-01-10T09:38:53;-2.40;99.90
3792;DHT22;1911;53.768;11.474;2024-01-10T09:41:19;-2.30;99.90
3792;DHT22;1911;53.768;11.474;2024-01-10T09:43:45;-2.30;99.90
3792;DHT22;1911;53.768;11.474;2024-01-10T09:46:10;-2.30;99.90
3792;DHT22;1911;53.768;11.474;2024-01-10T09:48:37;-2.30;99.90
3792;DHT22;1911;53.768;11.474;2024-01-10T09:51:03;-2.30;99.90
3792;DHT22;1911;53.768;11.474;2024-01-10T09:53:31;-2.30;99.90
3792;DHT22;1911;53.768;11.474;2024-01-10T09:55:57;-2.30;99.90
3792;DHT22;1911;53.768;11.474;2024-01-10T09:58:25;-2.20;99.90
3792;DHT22;1911;53.768;11.474;2024-01-10T10:00:51;-2.20;99.90
3792;DHT22;1911;53.768;11.474;2024-01-10T10:03:18;-2.20;99.90
3792;DHT22;1911;53.768;11.474;2024-01-10T10:05:44;-2.20;99.90
3792;DHT22;1911;53.768;11.474;2024-01-10T10:08:11;-2.10;99.90
3792;DHT22;1911;53.768;11.474;2024-01-10T10:10:37;-2.00;99.90
3792;DHT22;1911;53.768;11.474;2024-01-10T10:13:09;-2.00;99.90
3792;DHT22;1911;53.768;11.474;2024-01-10T10:15:36;-2.00;99.90
3792;DHT22;1911;53.768;11.474;2024-01-10T10:18:02;-2.00;99.90
3792;DHT22;1911;53.768;11.474;2024-01-10T10:20:31;-1.90;99.90
3792;DHT22;1911;53.768;11.474;2024-01-10T10:23:08;-1.80;99.90
3792;DHT22;1911;53.768;11.474;2024-01-10T10:25:46;-1.70;99.90
3792;DHT22;1911;53.768;11.474;2024-01-10T10:28:12;-1.70;99.90
3792;DHT22;1911;53.768;11.474;2024-01-10T10:30:38;-1.70;99.90
3792;DHT22;1911;53.768;11.474;2024-01-10T10:33:04;-1.60;99.90
3792;DHT22;1911;53.768;11.474;2024-01-10T10:35:32;-1.70;99.90
3792;DHT22;1911;53.768;11.474;2024-01-10T10:37:58;-1.60;99.90
3792;DHT22;1911;53.768;11.474;2024-01-10T10:40:24;-1.70;99.90
3792;DHT22;1911;53.768;11.474;2024-01-10T10:42:55;-1.70;99.90
3792;DHT22;1911;53.768;11.474;2024-01-10T10:45:22;-1.70;99.90
3792;DHT22;1911;53.768;11.474;2024-01-10T10:48:00;-1.70;99.90
3792;DHT22;1911;53.768;11.474;2024-01-10T10:50:28;-1.60;99.90
3792;DHT22;1911;53.768;11.474;2024-01-10T10:52:59;-1.60;99.90
3792;DHT22;1911;53.768;11.474;2024-01-10T10:55:26;-1.60;99.90
3792;DHT22;1911;53.768;11.474;2024-01-10T10:57:54;-1.70;99.90
3792;DHT22;1911;53.768;11.474;2024-01-10T11:00:21;-1.70;99.90
3792;DHT22;1911;53.768;11.474;2024-01-10T11:02:53;-1.80;99.90
3792;DHT22;1911;53.768;11.474;2024-01-10T11:05:20;-1.80;99.90
3792;DHT22;1911;53.768;11.474;2024-01-10T11:07:46;-1.70;99.90
3792;DHT22;1911;53.768;11.474;2024-01-10T11:10:21;-1.80;99.90
3792;DHT22;1911;53.768;11.474;2024-01-10T11:23:41;-1.80;99.90
3792;DHT22;1911;53.768;11.474;2024-01-10T11:26:08;-1.80;99.90
3792;DHT22;1911;53.768;11.474;2024-01-10T11:28:36;-1.60;99.90
3792;DHT22;1911;53.768;11.474;2024-01-10T11:31:03;-1.60;99.90
3792;DHT22;1911;53.768;11.474;2024-01-10T11:33:36;-1.50;99.90
3792;DHT22;1911;53.768;11.474;2024-01-10T11:36:16;-1.60;99.90
3792;DHT22;1911;53.768;11.474;2024-01-10T11:38:43;-1.50;99.90
3792;DHT22;1911;53.768;11.474;2024-01-10T11:41:16;-1.50;99.90
3792;DHT22;1911;53.768;11.474;2024-01-10T11:43:45;-1.60;99.90
3792;DHT22;1911;53.768;11.474;2024-01-10T11:46:12;-1.50;99.90
3792;DHT22;1911;53.768;11.474;2024-01-10T11:48:37;-1.60;99.90
3792;DHT22;1911;53.768;11.474;2024-01-10T11:51:04;-1.70;99.90
3792;DHT22;1911;53.768;11.474;2024-01-10T11:53:43;-1.70;99.90
3792;DHT22;1911;53.768;11.474;2024-01-10T11:56:13;-1.60;99.90
3792;DHT22;1911;53.768;11.474;2024-01-10T11:59:01;-1.60;99.90
3792;DHT22;1911;53.768;11.474;2024-01-10T12:01:31;-1.50;99.90
3792;DHT22;1911;53.768;11.474;2024-01-10T12:03:58;-1.40;99.90
3792;DHT22;1911;53.768;11.474;2024-01-10T12:06:24;-1.40;99.90
3792;DHT22;1911;53.768;11.474;2024-01-10T12:08:50;-1.40;99.90
3792;DHT22;1911;53.768;11.474;2024-01-10T12:11:17;-1.50;99.90
3792;DHT22;1911;53.768;11.474;2024-01-10T12:13:43;-1.50;99.90
3792;DHT22;1911;53.768;11.474;2024-01-10T12:16:09;-1.50;99.90
3792;DHT22;1911;53.768;11.474;2024-01-10T12:18:35;-1.70;99.90
3792;DHT22;1911;53.768;11.474;2024-01-10T12:21:01;-1.80;99.90
3792;DHT22;1911;53.768;11.474;2024-01-10T12:23:26;-1.90;99.90
3792;DHT22;1911;53.768;11.474;2024-01-10T12:25:57;-1.70;99.90
3792;DHT22;1911;53.768;11.474;2024-01-10T12:28:25;-1.80;99.90
3792;DHT22;1911;53.768;11.474;2024-01-10T12:30:52;-1.70;99.90
3792;DHT22;1911;53.768;11.474;2024-01-10T12:33:17;-1.70;99.90
3792;DHT22;1911;53.768;11.474;2024-01-10T12:35:43;-1.70;99.90
3792;DHT22;1911;53.768;11.474;2024-01-10T12:38:12;-1.80;99.90
3792;DHT22;1911;53.768;11.474;2024-01-10T12:40:37;-1.80;99.90
3792;DHT22;1911;53.768;11.474;2024-01-10T12:43:04;-1.70;99.90
3792;DHT22;1911;53.768;11.474;2024-01-10T12:45:30;-1.60;99.90
3792;DHT22;1911;53.768;11.474;2024-01-10T12:47:57;-1.60;99.90
3792;DHT22;1911;53.768;11.474;2024-01-10T12:50:23;-1.60;99.90
3792;DHT22;1911;53.768;11.474;2024-01-10T12:52:50;-1.60;99.90
3792;DHT22;1911;53.768;11.474;2024-01-10T12:55:16;-1.60;99.90
3792;DHT22;1911;53.768;11.474;2024-01-10T12:57:43;-1.70;99.90
3792;DHT22;1911;53.768;11.474;2024-01-10T13:00:09;-1.60;99.90
3792;DHT22;1911;53.768;11.474;2024-01-10T13:02:36;-1.70;99.90
3792;DHT22;1911;53.768;11.474;2024-01-10T13:05:04;-1.70;99.90
3792;DHT22;1911;53.768;11.474;2024-01-10T13:07:29;-1.60;99.90
3792;DHT22;1911;53.768;11.474;2024-01-10T13:09:59;-1.60;99.90
3792;DHT22;1911;53.768;11.474;2024-01-10T13:12:25;-1.70;99.90
3792;DHT22;1911;53.768;11.474;2024-01-10T13:14:51;-1.70;99.90
3792;DHT22;1911;53.768;11.474;2024-01-10T13:17:16;-1.70;99.90
3792;DHT22;1911;53.768;11.474;2024-01-10T13:19:42;-1.70;99.90
3792;DHT22;1911;53.768;11.474;2024-01-10T13:22:13;-1.60;99.90
3792;DHT22;1911;53.768;11.474;2024-01-10T13:24:41;-1.60;99.90
3792;DHT22;1911;53.768;11.474;2024-01-10T13:27:07;-1.60;99.90
3792;DHT22;1911;53.768;11.474;2024-01-10T13:29:36;-1.40;99.90
3792;DHT22;1911;53.768;11.474;2024-01-10T13:32:03;-1.40;99.90
3792;DHT22;1911;53.768;11.474;2024-01-10T13:34:29;-1.50;99.90
3792;DHT22;1911;53.768;11.474;2024-01-10T13:36:54;-1.40;99.90
3792;DHT22;1911;53.768;11.474;2024-01-10T13:39:20;-1.40;99.90
3792;DHT22;1911;53.768;11.474;2024-01-10T13:41:45;-1.40;99.90
3792;DHT22;1911;53.768;11.474;2024-01-10T13:44:11;-1.40;99.90
3792;DHT22;1911;53.768;11.474;2024-01-10T13:46:37;-1.40;99.90
3792;DHT22;1911;53.768;11.474;2024-01-10T13:49:03;-1.40;99.90
3792;DHT22;1911;53.768;11.474;2024-01-10T13:51:28;-1.40;99.90
3792;DHT22;1911;53.768;11.474;2024-01-10T13:53:54;-1.30;99.90
3792;DHT22;1911;53.768;11.474;2024-01-10T13:56:20;-1.30;99.90
3792;DHT22;1911;53.768;11.474;2024-01-10T13:58:48;-1.40;99.90
3792;DHT22;1911;53.768;11.474;2024-01-10T14:01:13;-1.40;99.90
3792;DHT22;1911;53.768;11.474;2024-01-10T14:03:39;-1.40;99.90
3792;DHT22;1911;53.768;11.474;2024-01-10T14:06:05;-1.40;99.90
3792;DHT22;1911;53.768;11.474;2024-01-10T14:08:31;-1.40;99.90
3792;DHT22;1911;53.768;11.474;2024-01-10T14:10:57;-1.40;99.90
3792;DHT22;1911;53.768;11.474;2024-01-10T14:13:22;-1.40;99.90
3792;DHT22;1911;53.768;11.474;2024-01-10T14:15:51;-1.40;99.90
3792;DHT22;1911;53.768;11.474;2024-01-10T14:18:16;-1.40;99.90
3792;DHT22;1911;53.768;11.474;2024-01-10T14:20:42;-1.40;99.90
3792;DHT22;1911;53.768;11.474;2024-01-10T14:23:07;-1.50;99.90
3792;DHT22;1911;53.768;11.474;2024-01-10T14:25:33;-1.50;99.90
3792;DHT22;1911;53.768;11.474;2024-01-10T14:27:59;-1.50;99.90
3792;DHT22;1911;53.768;11.474;2024-01-10T14:30:28;-1.40;99.90
3792;DHT22;1911;53.768;11.474;2024-01-10T14:32:54;-1.50;99.90
3792;DHT22;1911;53.768;11.474;2024-01-10T14:35:19;-1.50;99.90
3792;DHT22;1911;53.768;11.474;2024-01-10T14:37:45;-1.40;99.90
3792;DHT22;1911;53.768;11.474;2024-01-10T14:40:11;-1.40;99.90
3792;DHT22;1911;53.768;11.474;2024-01-10T14:42:39;-1.40;99.90
3792;DHT22;1911;53.768;11.474;2024-01-10T14:45:07;-0.20;99.90
3792;DHT22;1911;53.768;11.474;2024-01-10T14:47:36;-1.30;99.90
3792;DHT22;1911;53.768;11.474;2024-01-10T14:50:01;-1.30;99.90
3792;DHT22;1911;53.768;11.474;2024-01-10T14:52:29;-1.30;99.90
3792;DHT22;1911;53.768;11.474;2024-01-10T14:54:54;-1.30;99.90
3792;DHT22;1911;53.768;11.474;2024-01-10T14:57:20;-1.30;99.90
3792;DHT22;1911;53.768;11.474;2024-01-10T14:59:47;-1.30;99.90
3792;DHT22;1911;53.768;11.474;2024-01-10T15:02:13;-1.30;99.90
3792;DHT22;1911;53.768;11.474;2024-01-10T15:04:39;-1.30;99.90
3792;DHT22;1911;53.768;11.474;2024-01-10T15:07:05;-1.30;99.90
3792;DHT22;1911;53.768;11.474;2024-01-10T15:09:36;-1.30;99.90
3792;DHT22;1911;53.768;11.474;2024-01-10T15:12:03;-1.30;99.90
3792;DHT22;1911;53.768;11.474;2024-01-10T15:14:31;-1.30;99.90
3792;DHT22;1911;53.768;11.474;2024-01-10T15:16:57;-1.40;99.90
3792;DHT22;1911;53.768;11.474;2024-01-10T15:19:24;-1.30;99.90
3792;DHT22;1911;53.768;11.474;2024-01-10T15:21:49;-1.30;99.90
3792;DHT22;1911;53.768;11.474;2024-01-10T15:24:15;-1.30;99.90
3792;DHT22;1911;53.768;11.474;2024-01-10T15:26:40;-1.30;99.90
3792;DHT22;1911;53.768;11.474;2024-01-10T15:29:07;-1.30;99.90
3792;DHT22;1911;53.768;11.474;2024-01-10T15:31:33;-1.30;99.90
3792;DHT22;1911;53.768;11.474;2024-01-10T15:34:02;-1.30;99.90
3792;DHT22;1911;53.768;11.474;2024-01-10T15:36:27;-1.30;99.90
3792;DHT22;1911;53.768;11.474;2024-01-10T15:38:53;-1.30;99.90
3792;DHT22;1911;53.768;11.474;2024-01-10T15:41:19;-1.30;99.90
3792;DHT22;1911;53.768;11.474;2024-01-10T15:43:44;-1.30;99.90
3792;DHT22;1911;53.768;11.474;2024-01-10T15:46:20;-1.40;99.90
3792;DHT22;1911;53.768;11.474;2024-01-10T15:48:46;-1.40;99.90
3792;DHT22;1911;53.768;11.474;2024-01-10T15:51:12;-1.40;99.90